Time;durP1;ratioP1;P1;durP2;ratioP2;P2;SDS_P1;SDS_P2;PMS_P1;PMS_P2;Temp;Humidity;BMP_temperature;BMP_pressure;BME280_temperature;BME280_humidity;BME280_pressure;Samples;Min_cycle;Max_cycle;Signal;HPM_P1;HPM_P2
2023/05/14 00:45:17;;;;;;;;;;;;;;;;;;;;;
2023/05/14 03:35:34;;;;;;;;;;;;;;;;;;;;;
2023/05/14 03:38:56;;;;;;;;;;;;;;;;;;;;;
2023/05/14 04:24:10;;;;;;;10.50;9.50;;;;;;;9.98;96.31;95514.38;6337840;22;20163;-87
2023/05/14 04:34:13;;;;;;;;;;;;;;;;;;;;;
2023/05/14 05:08:01;;;;;;;12.37;11.13;;;;;;;10.70;92.90;95516.16;5979263;24;20174;-85
2023/05/14 05:10:32;;;;;;;12.33;11.03;;;;;;;10.77;91.54;95512.78;5978796;24;20591;-85
2023/05/14 05:12:58;;;;;;;15.73;11.03;;;;;;;10.77;91.18;95515.38;5956346;24;20311;-84
2023/05/14 05:15:23;;;;;;;12.47;11.00;;;;;;;11.05;89.98;95515.28;5979857;24;20191;-84
2023/05/14 05:21:41;;;;;;;10.80;9.80;;;;;;;11.33;89.43;95513.38;5931915;24;20284;-82
2023/05/14 05:24:12;;;;;;;12.13;10.73;;;;;;;11.36;89.05;95513.06;5880679;24;20177;-82
2023/05/14 05:26:40;;;;;;;12.37;11.07;;;;;;;11.58;87.33;95512.56;5901832;24;20285;-80
2023/05/14 05:29:18;;;;;;;11.63;10.37;;;;;;;11.73;87.69;95509.34;5929813;24;20165;-81
2023/05/14 05:31:58;;;;;;;11.10;10.07;;;;;;;11.78;84.99;95507.13;5929194;24;20201;-81
2023/05/14 05:34:48;;;;;;;10.60;9.50;;;;;;;12.10;85.09;95509.03;5923324;24;20169;-82
2023/05/14 05:37:21;;;;;;;11.40;10.30;;;;;;;12.98;83.21;95506.75;6044480;23;20185;-82
2023/05/14 05:39:56;;;;;;;10.63;9.43;;;;;;;13.96;77.27;95511.81;6018317;23;20219;-82
2023/05/14 05:42:22;;;;;;;8.73;7.93;;;;;;;13.82;76.51;95508.94;6127755;23;20224;-82
2023/05/14 05:44:48;;;;;;;9.80;8.80;;;;;;;13.64;73.10;95512.75;6079173;23;20199;-80
2023/05/14 05:47:15;;;;;;;8.90;8.00;;;;;;;14.86;72.22;95514.78;6077606;23;20164;-80
2023/05/14 05:49:43;;;;;;;9.13;8.23;;;;;;;15.90;64.98;95514.00;6079308;23;20308;-80
2023/05/14 05:52:14;;;;;;;8.47;7.67;;;;;;;16.00;61.56;95508.50;6053310;23;20168;-79
2023/05/14 05:54:39;;;;;;;8.30;7.50;;;;;;;15.74;64.91;95512.38;6053148;23;20168;-81
2023/05/14 05:57:26;;;;;;;8.97;8.10;;;;;;;14.81;66.12;95507.47;6062708;23;20520;-80
2023/05/14 06:04:28;;;;;;;10.20;8.10;;;;;;;14.28;70.16;95511.66;6253079;23;20172;-82
2023/05/14 06:14:09;;;;;;;9.10;8.23;;;;;;;13.19;76.53;95527.13;6269959;22;20235;-84
2023/05/14 06:16:54;;;;;;;9.10;8.20;;;;;;;12.99;76.59;95529.25;6273368;22;20267;-87
2023/05/14 06:19:39;;;;;;;10.67;9.33;;;;;;;12.60;79.10;95526.44;6249042;22;20176;-86
2023/05/14 06:22:51;;;;;;;11.30;9.30;;;;;;;12.41;79.50;95514.50;6211890;23;20616;-88
2023/05/14 06:25:22;;;;;;;9.33;8.33;;;;;;;11.89;82.60;95523.28;6187914;23;20603;-88
2023/05/14 06:27:57;;;;;;;10.33;9.33;;;;;;;11.81;83.36;95522.44;6186887;23;20212;-87
2023/05/14 06:30:38;;;;;;;11.17;10.07;;;;;;;11.79;84.41;95513.94;6187691;23;20189;-87
2023/05/14 06:37:13;;;;;;;10.27;9.20;;;;;;;12.54;82.68;95514.03;6094410;23;20199;-86
2023/05/14 06:40:34;;;;;;;9.80;8.73;;;;;;;14.00;76.25;95519.16;6095957;23;20155;-87
2023/05/14 06:46:15;;;;;;;12.83;8.80;;;;;;;13.97;75.25;95522.09;6094389;23;20554;-87
2023/05/14 06:49:12;;;;;;;10.03;8.47;;;;;;;14.10;74.75;95521.56;6058955;23;20165;-87
2023/05/14 06:52:42;;;;;;;;;;;;;;;;;;;;;
2023/05/14 07:07:12;;;;;;;;;;;;;;;;;;;;;
2023/05/14 07:10:01;;;;;;;9.67;8.77;;;;;;;13.88;71.11;95508.25;6275948;22;20922;-86
2023/05/14 07:13:04;;;;;;;9.77;8.87;;;;;;;14.01;71.32;95520.78;6225148;22;20244;-87
2023/05/14 07:18:51;;;;;;;10.70;8.20;;;;;;;14.13;71.81;95515.97;6152538;23;20211;-88
2023/05/14 07:21:22;;;;;;;9.07;8.07;;;;;;;14.27;70.50;95517.06;6127502;23;20183;-87
2023/05/14 07:23:55;;;;;;;9.23;8.33;;;;;;;13.23;75.83;95508.41;6126363;23;20165;-87
2023/05/14 07:26:23;;;;;;;11.73;8.27;;;;;;;13.72;74.28;95516.16;6126632;23;20174;-86
2023/05/14 07:28:48;;;;;;;9.20;8.30;;;;;;;13.55;75.19;95517.16;6100756;23;20627;-86
2023/05/14 07:31:14;;;;;;;10.63;8.63;;;;;;;13.47;76.69;95509.34;6101916;23;20181;-87
2023/05/14 07:33:39;;;;;;;10.47;8.87;;;;;;;13.44;76.64;95501.88;6101988;23;20163;-86
2023/05/14 07:36:05;;;;;;;10.07;8.80;;;;;;;13.11;77.62;95511.50;6125984;23;20201;-87
2023/05/14 07:38:39;;;;;;;10.73;9.37;;;;;;;13.47;76.15;95506.75;6102076;23;20163;-86
2023/05/14 07:41:04;;;;;;;9.73;8.73;;;;;;;14.19;71.91;95510.09;6100145;23;20258;-86
2023/05/14 07:43:32;;;;;;;9.57;8.37;;;;;;;14.43;72.37;95499.50;6103550;23;20606;-86
2023/05/14 07:45:58;;;;;;;10.37;9.37;;;;;;;14.49;72.28;95497.22;6124520;23;20159;-86
2023/05/14 07:48:23;;;;;;;8.47;7.67;;;;;;;15.24;68.97;95497.31;6133294;22;20174;-87
2023/05/14 07:50:57;;;;;;;11.83;10.63;;;;;;;16.08;66.94;95501.38;6246374;22;20263;-87
2023/05/14 07:53:23;;;;;;;9.47;8.50;;;;;;;16.26;62.55;95500.97;6248612;22;20412;-87
2023/05/14 07:55:54;;;;;;;12.53;11.17;;;;;;;16.93;62.21;95507.75;6223981;22;20156;-87
2023/05/14 07:58:27;;;;;;;8.80;7.90;;;;;;;16.61;61.45;95504.59;6249627;22;20198;-87
2023/05/14 08:01:05;;;;;;;9.90;8.18;;;;;;;16.40;63.26;95505.34;6224708;22;20176;-86
2023/05/14 08:03:33;;;;;;;9.02;8.13;;;;;;;16.40;62.27;95505.34;6249386;22;20237;-86
2023/05/14 08:06:17;;;;;;;9.38;8.38;;;;;;;16.08;63.38;95501.38;6248088;22;20172;-87
2023/05/14 08:09:17;;;;;;;9.18;8.20;;;;;;;16.01;63.77;95497.03;6224320;22;20242;-87
2023/05/14 08:12:23;;;;;;;;;;;;;;;;;;;;;
2023/05/14 08:33:35;;;;;;;9.48;7.68;;;;;;;16.23;60.52;95490.03;6321025;22;20202;-87
2023/05/14 08:35:53;;;;;;;7.78;6.97;;;;;;;16.47;62.79;95488.91;6324014;22;20170;-83
2023/05/14 08:38:19;;;;;;;8.63;6.90;;;;;;;16.30;62.67;95496.97;6320443;22;20701;-85
2023/05/14 08:41:13;;;;;;;8.55;7.75;;;;;;;15.95;64.68;95495.13;6317891;22;20643;-80
2023/05/14 12:13:23;;;;;;;6.73;6.13;;;;;;;16.48;61.35;95399.59;6298693;22;20219;-76
2023/05/14 12:20:32;;;;;;;;;;;;;;;;;;;;;
2023/05/14 12:56:06;;;;;;;3.15;2.83;;;;;;;15.82;58.31;95375.34;6330114;22;20207;-83
2023/05/14 12:59:08;;;;;;;4.57;3.58;;;;;;;15.76;61.48;95382.13;6285910;22;20163;-82
2023/05/14 14:18:38;;;;;;;6.00;5.50;;;;;;;15.92;66.53;95302.53;6067847;23;20237;-82
2023/05/14 14:41:44;;;;;;;6.60;6.00;;;;;;;16.39;68.03;95309.00;6305765;22;20199;-83
2023/05/14 15:32:46;;;;;;;4.93;4.53;;;;;;;16.24;63.93;95290.72;6300415;22;20185;-86
2023/05/14 17:05:35;;;;;;;6.23;5.63;;;;;;;15.46;71.46;95266.19;6341810;22;20161;-86
2023/05/14 17:54:59;;;;;;;5.68;5.18;;;;;;;16.23;67.21;95285.69;6313319;22;20206;-87
2023/05/14 18:01:54;;;;;;;;;;;;;;;;;;;;;
2023/05/14 18:05:07;;;;;;;6.60;5.10;;;;;;;15.50;68.03;95290.97;6337567;22;20237;-84
2023/05/14 18:07:53;;;;;;;4.93;4.40;;;;;;;15.19;67.85;95280.72;6286307;22;20151;-85
2023/05/14 18:12:51;;;;;;;4.78;4.35;;;;;;;15.06;67.71;95283.19;6335567;22;20174;-85
2023/05/14 18:22:03;;;;;;;8.00;6.45;;;;;;;14.76;73.68;95282.38;6293477;22;20236;-84
2023/05/14 18:31:21;;;;;;;5.87;3.50;;;;;;;12.67;75.16;95325.03;6338291;22;20183;-86
2023/05/14 18:33:51;;;;;;;6.60;3.73;;;;;;;11.88;74.47;95325.69;6285943;22;20159;-88
2023/05/14 18:36:25;;;;;;;6.37;4.40;;;;;;;11.93;74.58;95310.44;6287075;22;20185;-87
2023/05/14 18:39:23;;;;;;;26.17;12.17;;;;;;;11.63;78.25;95312.63;6285696;22;20156;-86
2023/05/14 18:51:20;;;;;;;9.17;5.87;;;;;;;11.45;83.98;95303.31;6315262;22;20225;-86
2023/05/14 18:54:25;;;;;;;8.60;6.87;;;;;;;11.39;84.60;95289.16;6276483;22;20503;-87
2023/05/14 18:57:12;;;;;;;8.83;7.20;;;;;;;11.27;87.89;95288.63;6295128;22;20182;-87
2023/05/14 19:12:10;;;;;;;8.70;6.63;;;;;;;11.10;90.83;95299.13;6308368;22;20203;-85
2023/05/14 19:14:44;;;;;;;8.90;6.73;;;;;;;11.03;94.02;95289.34;6280759;22;20174;-85
2023/05/14 19:43:34;;;;;;;5.53;5.03;;;;;;;10.52;94.29;95310.22;6240283;22;20183;-85
2023/05/14 19:50:35;;;;;;;;;;;;;;;;;;;;;
2023/05/14 19:57:40;;;;;;;5.60;5.10;;;;;;;10.33;94.76;95317.22;6004415;23;20189;-86
2023/05/14 20:11:14;;;;;;;6.07;5.53;;;;;;;10.16;95.72;95318.88;5882999;24;20597;-86
2023/05/14 21:09:49;;;;;;;;;;;;;;;;;;;;;
2023/05/14 21:12:51;;;;;;;;;;;;;;;;;;;;;
2023/05/14 21:25:58;;;;;;;;;;;;;;;;;;;;;
2023/05/14 21:32:14;;;;;;;5.27;4.50;;;;;;;10.17;96.09;95291.13;6105533;23;20198;-88
2023/05/14 21:34:47;;;;;;;4.93;4.53;;;;;;;10.15;96.53;95295.63;6103018;23;20299;-87
2023/05/14 21:40:45;;;;;;;4.20;3.87;;;;;;;10.14;96.81;95284.44;6152243;23;20191;-87
2023/05/14 21:43:55;;;;;;;4.93;4.53;;;;;;;10.13;96.46;95269.84;6103501;23;20186;-88
2023/05/14 21:46:46;;;;;;;5.40;4.67;;;;;;;10.09;96.71;95280.69;6127295;23;20147;-88
2023/05/14 21:49:20;;;;;;;4.73;4.30;;;;;;;10.10;96.19;95280.53;6103676;23;20163;-86
2023/05/14 21:51:54;;;;;;;6.33;4.27;;;;;;;10.03;96.52;95282.09;6103825;23;20842;-87
2023/05/14 21:55:07;;;;;;;5.60;4.33;;;;;;;10.01;96.71;95275.44;6104525;23;20167;-88
2023/05/14 21:57:38;;;;;;;6.70;4.40;;;;;;;9.95;97.57;95271.66;6123747;23;20156;-87
2023/05/14 22:00:22;;;;;;;4.77;4.37;;;;;;;10.05;96.98;95272.38;6127383;23;20179;-88
2023/05/14 22:03:27;;;;;;;4.77;4.37;;;;;;;10.02;97.22;95272.69;6184045;22;20160;-88
2023/05/14 22:10:22;;;;;;;6.20;5.60;;;;;;;10.07;97.12;95275.66;6150594;23;20163;-89
2023/05/14 22:17:13;;;;;;;7.07;5.30;;;;;;;10.14;97.21;95278.44;6181019;23;20843;-88
2023/05/14 22:20:16;;;;;;;5.83;5.33;;;;;;;10.18;97.20;95275.41;6161964;23;20158;-88
2023/05/14 22:26:50;;;;;;;6.83;5.10;;;;;;;10.26;97.02;95273.88;6092606;23;20199;-87
2023/05/14 22:29:56;;;;;;;;;;;;;;;;;;;;;
2023/05/14 22:32:56;;;;;;;7.23;6.27;;;;;;;10.26;97.30;95264.31;6093468;23;20271;-88
2023/05/14 22:35:52;;;;;;;6.43;5.63;;;;;;;10.31;96.85;95254.25;6092630;23;20175;-87
2023/05/14 22:39:21;;;;;;;5.90;5.40;;;;;;;10.33;96.56;95254.91;6075157;23;20268;-87
2023/05/14 22:41:56;;;;;;;6.47;5.87;;;;;;;10.26;96.01;95256.53;6088751;23;20194;-88
2023/05/14 22:44:27;;;;;;;5.87;5.37;;;;;;;10.28;96.02;95251.97;6151988;23;20147;-88
2023/05/14 22:46:58;;;;;;;5.40;4.90;;;;;;;10.31;95.84;95253.44;6151198;23;20159;-87
2023/05/14 22:49:29;;;;;;;6.13;5.53;;;;;;;10.31;95.76;95258.66;6150219;23;20171;-87
2023/05/14 22:52:00;;;;;;;6.60;5.40;;;;;;;10.30;95.56;95252.63;6150439;23;20207;-87
2023/05/14 22:54:26;;;;;;;5.73;5.13;;;;;;;10.28;95.05;95251.16;6151596;23;20159;-87
2023/05/14 22:56:51;;;;;;;6.57;5.23;;;;;;;10.25;94.69;95259.25;6242309;22;20156;-88
2023/05/14 22:59:20;;;;;;;7.03;5.57;;;;;;;10.25;95.01;95248.88;6274182;22;20180;-87
2023/05/14 23:04:52;;;;;;;5.63;4.90;;;;;;;10.22;94.65;95242.22;6274223;22;20208;-87
2023/05/14 23:07:20;;;;;;;5.50;5.03;;;;;;;10.19;94.55;95234.69;6273229;22;20497;-87
2023/05/14 23:09:48;;;;;;;4.70;4.27;;;;;;;10.16;93.85;95238.44;6274008;22;20290;-87
2023/05/14 23:12:17;;;;;;;6.40;5.17;;;;;;;10.13;93.35;95237.91;6247930;22;20184;-87
2023/05/14 23:14:48;;;;;;;4.80;4.30;;;;;;;10.12;93.79;95231.09;6271009;22;20156;-87
2023/05/14 23:17:19;;;;;;;5.23;4.73;;;;;;;10.11;93.80;95234.66;6274177;22;20152;-87
2023/05/14 23:19:47;;;;;;;5.40;4.90;;;;;;;10.08;93.59;95233.19;6274231;22;20218;-88
2023/05/14 23:22:32;;;;;;;5.20;4.70;;;;;;;10.06;93.54;95235.09;6272522;22;20590;-87
2023/05/14 23:24:58;;;;;;;6.37;5.03;;;;;;;10.00;94.08;95237.50;6277448;22;20485;-87
2023/05/14 23:27:28;;;;;;;5.97;5.47;;;;;;;9.95;94.60;95230.16;6247340;22;20253;-87
2023/05/14 23:30:02;;;;;;;5.37;4.87;;;;;;;9.96;94.82;95242.16;6275047;22;20201;-87
2023/05/14 23:32:30;;;;;;;5.43;4.97;;;;;;;9.97;94.93;95228.22;6274599;22;20204;-87
2023/05/14 23:34:58;;;;;;;5.40;4.90;;;;;;;10.00;94.60;95227.13;6248474;22;20163;-88
2023/05/14 23:37:26;;;;;;;4.90;4.50;;;;;;;10.03;93.87;95222.44;6272772;22;20164;-87
2023/05/14 23:39:55;;;;;;;4.37;3.97;;;;;;;10.06;93.91;95226.50;6247620;22;20169;-87
2023/05/14 23:42:33;;;;;;;5.37;4.87;;;;;;;10.09;94.00;95218.44;6273582;22;20672;-87
2023/05/14 23:45:38;;;;;;;4.93;4.40;;;;;;;10.08;93.73;95224.59;6274493;22;20156;-87
2023/05/14 23:48:32;;;;;;;5.30;4.80;;;;;;;10.09;93.75;95221.84;6246507;22;20330;-87
2023/05/14 23:51:00;;;;;;;4.70;4.30;;;;;;;10.03;94.16;95214.66;6273784;22;20181;-87
2023/05/14 23:53:38;;;;;;;5.50;5.00;;;;;;;9.95;95.24;95209.41;6247324;22;20157;-87
2023/05/14 23:56:23;;;;;;;6.23;4.87;;;;;;;9.94;95.27;95210.38;6247859;22;20164;-87
2023/05/14 23:59:05;;;;;;;4.73;4.33;;;;;;;9.94;94.83;95211.19;6275316;22;20152;-88
